Startpagina
METAR-TAF:

METAR-TAF

Vliegvelden :

Maastricht Aachen Airport

Maastricht Aken, Nederland

breedte: 50-55N, lengte: 005-47E, hoogte: 114 m

Actueel weer

Dit bericht is 28 minuten geleden gemaakt, om 06:55 UTC
Wind 11 kt uit het zuidzuidwesten
Temperatuur 4°C
Vochtigheid 70%
Druk 1025 hPa
Zicht 10 km of meer

METAR: EHBK 160655Z AUTO 20011KT 9999 NCD 04/M01 Q1025 NOSIG

Tijdstip: 08:23 (07:23 UTC)

Verwachting

Dit bericht is 2 uur en het 37 minuten geleden gemaakt, om 04:46 UTC
Verwachting geldig van 16 om 06 UTC tot 17 om 12 UTC
Wind 8 kt uit het zuiden
Zicht 10 km of meer
geen wolken onder 1500 m en geen cumulonimbus
Wijzigt naar
van 16 om 08 UTC tot 16 om 11 UTC
Wind 10 kt uit het zuidwesten
Wijzigt naar
van 16 om 18 UTC tot 16 om 20 UTC
Wind 6 kt uit het zuiden
Wijzigt naar
van 17 om 09 UTC tot 17 om 12 UTC
Wind 10 kt uit het zuidzuidwesten

TAF: EHBK 160446Z 1606/1712 19008KT CAVOK BECMG 1608/1611 23010KT BECMG 1618/1620 18006KT BECMG 1709/1712 21010KT

Waarnemingen en weersverwachtingen van meer dan 4000 vliegvelden (METAR en TAF).

De beschikbare stations zijn de gele en rode punten op de kaart.

Ga met uw muis naar het station om de naam te zien.

Klik dan om waarnemingen en weersverwachtingen te zien.

kaart wijzigen: klik op de groene knoppen met een zwart kruis om in te zoomen, op de groene knop met een streepje om uit te zoomen of op de groene pijlen voor aangrenzende kaarten.


METAR-TAF: